createdAt,value
2023-02-28T00:00:20.078Z,6.20
2023-02-28T00:02:46.915Z,6.43
2023-02-28T00:05:14.578Z,6.03
2023-02-28T00:07:41.407Z,5.97
2023-02-28T00:10:08.735Z,6.40
2023-02-28T00:12:35.901Z,6.65
2023-02-28T00:15:02.962Z,6.20
2023-02-28T00:17:29.398Z,6.07
2023-02-28T00:19:55.805Z,6.45
2023-02-28T00:22:22.429Z,6.13
2023-02-28T00:24:48.920Z,6.40
2023-02-28T00:27:15.878Z,6.32
2023-02-28T00:29:42.330Z,5.90
2023-02-28T00:32:08.819Z,6.03
2023-02-28T00:34:38.574Z,5.93
2023-02-28T00:37:06.219Z,6.50
2023-02-28T00:39:34.016Z,6.15
2023-02-28T00:42:00.432Z,6.57
2023-02-28T00:44:26.890Z,7.00
2023-02-28T00:46:55.041Z,6.18
2023-02-28T00:49:21.724Z,5.93
2023-02-28T00:51:48.110Z,6.57
2023-02-28T00:54:14.519Z,5.82
2023-02-28T00:56:40.915Z,6.65
2023-02-28T00:59:07.353Z,5.85
2023-02-28T01:01:33.862Z,6.03
2023-02-28T01:04:00.300Z,5.30
2023-02-28T01:06:26.870Z,5.93
2023-02-28T01:08:53.305Z,6.10
2023-02-28T01:11:19.782Z,5.95
2023-02-28T01:13:46.977Z,5.78
2023-02-28T01:16:14.106Z,5.78
2023-02-28T01:18:40.539Z,5.60
2023-02-28T01:21:14.564Z,6.55
2023-02-28T01:23:41.460Z,5.88
2023-02-28T01:26:14.999Z,5.70
2023-02-28T01:28:41.878Z,5.82
2023-02-28T01:31:09.275Z,5.97
2023-02-28T01:33:36.259Z,5.82
2023-02-28T01:36:03.786Z,5.65
2023-02-28T01:38:30.401Z,6.15
2023-02-28T01:40:56.836Z,5.80
2023-02-28T01:43:28.032Z,6.25
2023-02-28T01:45:55.428Z,5.93
2023-02-28T01:48:33.689Z,5.40
2023-02-28T01:51:02.681Z,5.75
2023-02-28T01:53:32.501Z,5.85
2023-02-28T01:55:59.284Z,5.43
2023-02-28T01:58:25.640Z,6.05
2023-02-28T02:00:52.212Z,5.43
2023-02-28T02:03:20.130Z,5.80
2023-02-28T02:05:48.772Z,5.72
2023-02-28T02:08:20.797Z,5.55
2023-02-28T02:10:51.231Z,5.32
2023-02-28T02:13:43.993Z,5.80
2023-02-28T02:18:39.655Z,5.55
2023-02-28T02:21:24.968Z,5.90
2023-02-28T02:24:10.177Z,6.13
2023-02-28T02:26:45.072Z,5.57
2023-02-28T02:29:23.234Z,6.18
2023-02-28T02:31:53.123Z,5.82
2023-02-28T02:34:38.330Z,5.93
2023-02-28T02:37:10.817Z,5.40
2023-02-28T02:39:40.237Z,5.85
2023-02-28T02:42:15.089Z,5.88
2023-02-28T02:44:45.580Z,5.72
2023-02-28T02:47:14.780Z,5.82
2023-02-28T02:49:44.051Z,6.40
2023-02-28T02:52:11.903Z,5.40
2023-02-28T02:54:39.486Z,6.10
2023-02-28T02:57:09.709Z,5.97
2023-02-28T02:59:37.308Z,5.80
2023-02-28T03:02:05.123Z,5.60
2023-02-28T03:04:34.565Z,5.40
2023-02-28T03:07:00.932Z,5.93
2023-02-28T03:09:27.639Z,5.68
2023-02-28T03:11:55.603Z,5.30
2023-02-28T03:14:24.857Z,5.60
2023-02-28T03:17:11.506Z,5.97
2023-02-28T03:19:37.909Z,6.25
2023-02-28T03:22:23.192Z,5.60
2023-02-28T03:25:07.773Z,5.95
2023-02-28T03:27:48.728Z,5.90
2023-02-28T03:30:25.950Z,5.75
2023-02-28T03:32:55.918Z,5.32
2023-02-28T03:35:24.363Z,5.20
2023-02-28T03:38:05.224Z,5.70
2023-02-28T03:40:34.074Z,5.28
2023-02-28T03:43:03.360Z,5.35
2023-02-28T03:45:31.139Z,4.85
2023-02-28T03:48:05.856Z,5.88
2023-02-28T03:50:40.406Z,5.10
2023-02-28T03:53:06.832Z,5.38
2023-02-28T03:55:35.945Z,4.72
2023-02-28T03:58:11.436Z,5.43
2023-02-28T04:00:43.197Z,5.47
2023-02-28T04:03:09.768Z,5.13
2023-02-28T04:05:47.504Z,4.82
2023-02-28T04:08:14.000Z,5.07
2023-02-28T04:10:40.445Z,5.22
2023-02-28T04:13:06.913Z,4.95
2023-02-28T04:15:33.333Z,4.88
2023-02-28T04:17:59.707Z,5.07
2023-02-28T04:20:26.191Z,5.25
2023-02-28T04:22:52.703Z,4.60
2023-02-28T04:25:19.122Z,5.55
2023-02-28T04:27:45.634Z,5.03
2023-02-28T04:30:12.306Z,4.93
2023-02-28T04:32:38.717Z,5.10
2023-02-28T04:35:05.427Z,4.88
2023-02-28T04:37:35.769Z,5.13
2023-02-28T04:40:02.376Z,5.38
2023-02-28T04:42:36.158Z,5.00
2023-02-28T04:45:05.750Z,5.22
2023-02-28T04:47:32.229Z,4.45
2023-02-28T04:49:58.719Z,4.78
2023-02-28T04:52:25.163Z,4.90
2023-02-28T04:54:51.545Z,5.00
2023-02-28T04:57:17.967Z,4.28
2023-02-28T04:59:45.185Z,4.65
2023-02-28T05:02:11.658Z,4.88
2023-02-28T05:04:38.237Z,4.88
2023-02-28T05:07:04.737Z,5.13
2023-02-28T05:09:31.171Z,5.15
2023-02-28T05:11:57.842Z,4.88
2023-02-28T05:14:24.267Z,4.57
2023-02-28T05:16:50.674Z,4.78
2023-02-28T05:19:17.168Z,4.57
2023-02-28T05:21:51.719Z,4.75
2023-02-28T05:24:23.665Z,4.45
2023-02-28T05:26:52.462Z,4.53
2023-02-28T05:29:18.910Z,4.38
2023-02-28T05:31:45.381Z,4.72
2023-02-28T05:34:13.471Z,4.38
2023-02-28T05:36:40.281Z,4.50
2023-02-28T05:39:08.506Z,4.47
2023-02-28T05:41:34.979Z,4.55
2023-02-28T05:44:01.710Z,3.95
2023-02-28T05:46:28.213Z,4.10
2023-02-28T05:48:54.811Z,4.50
2023-02-28T05:51:21.237Z,4.25
2023-02-28T05:53:49.278Z,4.18
2023-02-28T05:56:15.744Z,4.47
2023-02-28T05:58:42.164Z,4.40
2023-02-28T06:01:25.128Z,4.13
2023-02-28T06:03:51.887Z,4.40
2023-02-28T06:06:18.355Z,4.07
2023-02-28T06:08:45.800Z,3.95
2023-02-28T06:11:12.536Z,4.05
2023-02-28T06:13:38.968Z,4.10
2023-02-28T06:16:05.552Z,4.15
2023-02-28T06:18:32.926Z,4.07
2023-02-28T06:20:59.380Z,4.10
2023-02-28T06:23:25.886Z,3.97
2023-02-28T06:25:54.073Z,4.00
2023-02-28T06:28:20.535Z,4.07
2023-02-28T06:30:46.940Z,4.30
2023-02-28T06:33:13.389Z,4.18
2023-02-28T06:35:40.087Z,4.13
2023-02-28T06:38:06.594Z,4.30
2023-02-28T06:40:35.430Z,4.13
2023-02-28T06:43:01.862Z,4.30
2023-02-28T06:45:28.285Z,4.13
2023-02-28T06:47:54.873Z,3.97
2023-02-28T06:50:21.547Z,4.20
2023-02-28T06:52:48.144Z,3.75
2023-02-28T06:55:14.774Z,4.45
2023-02-28T06:57:41.214Z,4.30
2023-02-28T07:00:09.461Z,4.50
2023-02-28T07:02:36.842Z,4.47
2023-02-28T07:05:03.338Z,3.83
2023-02-28T07:07:29.742Z,3.92
2023-02-28T07:09:56.174Z,4.30
2023-02-28T07:12:22.652Z,4.25
2023-02-28T07:14:49.150Z,4.18
2023-02-28T07:17:15.578Z,4.13
2023-02-28T07:19:42.230Z,4.20
2023-02-28T07:22:08.645Z,4.00
2023-02-28T07:24:35.372Z,4.03
2023-02-28T07:27:02.537Z,3.95
2023-02-28T07:29:29.168Z,3.83
2023-02-28T07:31:55.770Z,4.18
2023-02-28T07:34:22.658Z,3.80
2023-02-28T07:36:49.122Z,3.80
2023-02-28T07:39:15.539Z,3.70
2023-02-28T07:41:44.619Z,3.10
2023-02-28T07:44:12.118Z,3.58
2023-02-28T07:46:38.711Z,3.42
2023-02-28T07:49:05.251Z,3.38
2023-02-28T07:51:32.047Z,4.15
2023-02-28T07:53:58.581Z,3.72
2023-02-28T07:56:24.967Z,3.42
2023-02-28T07:58:51.355Z,3.65
2023-02-28T08:01:18.391Z,3.20
2023-02-28T08:03:44.804Z,3.08
2023-02-28T08:06:17.072Z,3.30
2023-02-28T08:08:43.510Z,3.00
2023-02-28T08:11:09.861Z,3.20
2023-02-28T08:13:36.381Z,3.08
2023-02-28T08:16:03.447Z,3.00
2023-02-28T08:18:29.955Z,2.75
2023-02-28T08:20:57.659Z,3.25
2023-02-28T08:23:24.197Z,2.88
2023-02-28T08:25:53.950Z,2.72
2023-02-28T08:28:20.407Z,2.70
2023-02-28T08:30:46.910Z,2.83
2023-02-28T08:33:13.351Z,3.15
2023-02-28T08:35:39.795Z,2.58
2023-02-28T08:38:06.287Z,2.60
2023-02-28T08:40:32.715Z,2.40
2023-02-28T08:43:00.668Z,2.53
2023-02-28T08:45:27.145Z,2.53
2023-02-28T08:47:55.314Z,2.60
2023-02-28T08:50:21.948Z,2.78
2023-02-28T08:52:48.392Z,2.35
2023-02-28T08:55:14.916Z,2.75
2023-02-28T08:57:41.361Z,2.85
2023-02-28T09:00:08.554Z,2.55
2023-02-28T09:02:34.953Z,2.50
2023-02-28T09:05:01.382Z,2.42
2023-02-28T09:07:27.784Z,2.75
2023-02-28T09:09:58.598Z,2.35
2023-02-28T09:12:25.820Z,2.30
2023-02-28T09:14:52.765Z,2.50
2023-02-28T09:17:19.334Z,2.30
2023-02-28T09:19:45.840Z,2.45
2023-02-28T09:22:12.498Z,2.35
2023-02-28T09:24:41.835Z,2.20
2023-02-28T09:27:08.596Z,2.40
2023-02-28T09:29:35.631Z,2.45
2023-02-28T09:32:02.980Z,2.13
2023-02-28T09:34:31.930Z,2.42
2023-02-28T09:36:58.495Z,2.42
2023-02-28T09:39:27.666Z,2.25
2023-02-28T09:41:55.382Z,2.30
2023-02-28T09:44:43.920Z,2.10
2023-02-28T09:47:14.420Z,2.15
2023-02-28T09:49:47.300Z,2.08
2023-02-28T09:52:20.441Z,2.00
2023-02-28T09:54:47.026Z,2.03
2023-02-28T09:57:32.303Z,2.20
2023-02-28T09:59:58.710Z,1.80
2023-02-28T10:02:25.180Z,1.95
2023-02-28T10:05:03.350Z,2.30
2023-02-28T10:07:47.890Z,2.17
2023-02-28T10:10:33.973Z,2.38
2023-02-28T10:13:03.066Z,1.60
2023-02-28T10:15:31.202Z,1.80
2023-02-28T10:18:08.415Z,2.00
2023-02-28T10:20:39.113Z,1.80
2023-02-28T10:23:17.727Z,1.73
2023-02-28T10:25:49.046Z,1.90
2023-02-28T10:28:16.583Z,2.17
2023-02-28T10:30:50.605Z,1.85
2023-02-28T10:33:31.076Z,1.92
2023-02-28T10:35:58.062Z,2.10
2023-02-28T10:38:28.727Z,1.85
2023-02-28T10:41:12.103Z,1.80
2023-02-28T10:43:39.578Z,1.90
2023-02-28T10:46:11.954Z,1.92
2023-02-28T10:51:05.567Z,2.10
2023-02-28T10:53:52.546Z,1.88
2023-02-28T10:58:51.042Z,1.67
2023-02-28T11:01:19.229Z,1.95
2023-02-28T11:03:46.038Z,1.70
2023-02-28T11:06:22.060Z,1.77
2023-02-28T11:08:53.877Z,1.80
2023-02-28T11:11:21.280Z,1.95
2023-02-28T11:13:48.760Z,1.92
2023-02-28T11:16:16.347Z,1.98
2023-02-28T11:18:44.726Z,1.98
2023-02-28T11:21:17.434Z,1.95
2023-02-28T11:23:44.530Z,1.90
2023-02-28T11:26:12.348Z,1.92
2023-02-28T11:28:40.631Z,1.80
2023-02-28T11:31:13.298Z,2.00
2023-02-28T11:33:42.793Z,1.75
2023-02-28T11:36:25.676Z,2.00
2023-02-28T11:38:52.902Z,1.65
2023-02-28T11:41:25.248Z,2.00
2023-02-28T11:46:17.947Z,1.73
2023-02-28T11:49:07.817Z,1.77
2023-02-28T11:51:54.230Z,1.90
2023-02-28T11:54:36.473Z,2.13
2023-02-28T11:57:11.865Z,2.00
2023-02-28T11:59:50.995Z,1.67
2023-02-28T12:02:35.144Z,2.22
2023-02-28T12:05:13.044Z,2.45
2023-02-28T12:07:42.531Z,1.88
2023-02-28T12:10:22.792Z,2.17
2023-02-28T12:13:08.221Z,2.00
2023-02-28T12:15:59.709Z,2.10
2023-02-28T12:18:38.585Z,2.80
2023-02-28T12:21:09.474Z,2.88
2023-02-28T12:23:47.857Z,3.25
2023-02-28T12:26:14.537Z,5.20
2023-02-28T12:28:47.466Z,5.72
2023-02-28T12:31:30.634Z,4.80
2023-02-28T12:34:10.797Z,4.55
2023-02-28T12:36:37.720Z,4.70
2023-02-28T12:39:09.340Z,4.60
2023-02-28T12:41:40.062Z,4.63
2023-02-28T12:44:12.706Z,5.03
2023-02-28T12:46:42.001Z,5.18
2023-02-28T12:49:18.032Z,5.00
2023-02-28T12:51:45.709Z,5.40
2023-02-28T12:54:12.090Z,5.60
2023-02-28T12:56:38.512Z,5.38
2023-02-28T12:59:11.630Z,5.30
2023-02-28T13:01:56.667Z,5.40
2023-02-28T13:04:23.057Z,5.70
2023-02-28T13:07:04.780Z,5.65
2023-02-28T13:09:31.230Z,5.40
2023-02-28T13:11:58.770Z,5.15
2023-02-28T13:14:27.201Z,4.82
2023-02-28T13:17:14.990Z,5.22
2023-02-28T13:19:53.424Z,5.57
2023-02-28T13:22:25.883Z,5.82
2023-02-28T13:24:56.015Z,4.97
2023-02-28T13:27:25.620Z,5.03
2023-02-28T13:29:54.938Z,6.10
2023-02-28T13:32:29.907Z,6.18
2023-02-28T13:34:56.326Z,5.30
2023-02-28T13:37:22.715Z,5.45
2023-02-28T13:40:24.371Z,6.05
2023-02-28T13:42:51.542Z,5.55
2023-02-28T13:45:22.773Z,6.15
2023-02-28T13:47:53.363Z,5.32
2023-02-28T13:50:25.232Z,5.55
2023-02-28T13:52:51.626Z,6.45
2023-02-28T13:55:24.155Z,5.38
2023-02-28T13:58:10.204Z,5.40
2023-02-28T14:00:44.085Z,6.20
2023-02-28T14:03:13.827Z,5.82
2023-02-28T14:05:40.349Z,5.53
2023-02-28T14:08:09.241Z,5.85
2023-02-28T14:10:43.280Z,5.20
2023-02-28T14:13:35.922Z,5.70
2023-02-28T14:16:03.387Z,5.60
2023-02-28T14:18:37.005Z,5.50
2023-02-28T14:21:10.613Z,5.53
2023-02-28T14:23:56.770Z,5.30
2023-02-28T14:26:41.816Z,5.43
2023-02-28T14:29:23.617Z,5.15
2023-02-28T14:32:03.481Z,5.53
2023-02-28T14:34:37.360Z,4.47
2023-02-28T14:37:04.087Z,4.80
2023-02-28T14:39:34.403Z,4.10
2023-02-28T14:42:05.702Z,4.57
2023-02-28T14:44:32.695Z,4.43
2023-02-28T14:47:06.500Z,4.00
2023-02-28T14:49:37.828Z,4.03
2023-02-28T14:52:10.759Z,4.47
2023-02-28T14:54:40.701Z,3.97
2023-02-28T14:57:07.157Z,3.90
2023-02-28T14:59:36.608Z,4.22
2023-02-28T15:02:21.824Z,3.97
2023-02-28T15:04:58.624Z,4.25
2023-02-28T15:07:29.565Z,4.25
2023-02-28T15:10:15.326Z,4.25
2023-02-28T15:12:42.820Z,4.32
2023-02-28T15:15:15.928Z,4.50
2023-02-28T15:17:43.959Z,4.03
2023-02-28T15:20:13.794Z,4.22
2023-02-28T15:22:40.622Z,4.57
2023-02-28T15:25:09.108Z,4.15
2023-02-28T15:27:46.511Z,3.65
2023-02-28T15:30:16.518Z,4.15
2023-02-28T15:32:43.032Z,3.88
2023-02-28T15:35:21.776Z,4.15
2023-02-28T15:37:51.311Z,3.65
2023-02-28T15:40:17.780Z,3.92
2023-02-28T15:42:58.226Z,3.85
2023-02-28T15:45:28.726Z,3.55
2023-02-28T15:47:57.892Z,3.60
2023-02-28T15:50:30.445Z,3.67
2023-02-28T15:52:57.721Z,3.92
2023-02-28T15:55:27.421Z,3.22
2023-02-28T15:57:55.010Z,3.47
2023-02-28T16:00:23.338Z,3.55
2023-02-28T16:02:50.187Z,3.55
2023-02-28T16:05:22.779Z,3.65
2023-02-28T16:07:49.925Z,3.45
2023-02-28T16:10:16.499Z,3.60
2023-02-28T16:12:43.307Z,4.10
2023-02-28T16:15:18.204Z,3.83
2023-02-28T16:17:45.748Z,3.58
2023-02-28T16:20:16.474Z,3.95
2023-02-28T16:22:43.220Z,4.05
2023-02-28T16:25:12.488Z,3.78
2023-02-28T16:27:39.146Z,3.60
2023-02-28T16:30:12.050Z,4.10
2023-02-28T16:32:40.256Z,3.85
2023-02-28T16:35:10.231Z,3.80
2023-02-28T16:37:36.652Z,3.70
2023-02-28T16:40:03.656Z,4.35
2023-02-28T16:42:32.006Z,4.00
2023-02-28T16:44:59.071Z,4.28
2023-02-28T16:47:27.704Z,4.10
2023-02-28T16:49:54.276Z,3.92
2023-02-28T16:52:20.730Z,4.32
2023-02-28T16:54:47.188Z,4.47
2023-02-28T16:57:19.444Z,3.83
2023-02-28T16:59:45.926Z,4.25
2023-02-28T17:02:14.399Z,4.25
2023-02-28T17:04:40.911Z,4.18
2023-02-28T17:07:12.204Z,4.38
2023-02-28T17:09:43.020Z,4.32
2023-02-28T17:12:10.350Z,4.03
2023-02-28T17:14:36.792Z,3.90
2023-02-28T17:17:03.234Z,3.97
2023-02-28T17:19:29.598Z,3.90
2023-02-28T17:21:56.148Z,4.20
2023-02-28T17:24:30.971Z,3.90
2023-02-28T17:26:57.817Z,4.22
2023-02-28T17:29:25.477Z,4.07
2023-02-28T17:31:52.166Z,4.47
2023-02-28T17:34:21.436Z,4.60
2023-02-28T17:36:49.176Z,4.38
2023-02-28T17:39:16.054Z,4.93
2023-02-28T17:41:42.817Z,4.60
2023-02-28T17:44:09.780Z,4.63
2023-02-28T17:46:37.003Z,4.40
2023-02-28T17:49:03.938Z,5.20
2023-02-28T17:51:30.526Z,4.63
2023-02-28T17:53:56.933Z,4.93
2023-02-28T17:56:24.449Z,4.93
2023-02-28T17:58:52.232Z,5.18
2023-02-28T18:01:19.060Z,5.22
2023-02-28T18:03:45.554Z,5.18
2023-02-28T18:06:34.628Z,5.10
2023-02-28T18:09:01.024Z,5.47
2023-02-28T18:11:42.250Z,5.68
2023-02-28T18:14:09.003Z,5.55
2023-02-28T18:16:35.447Z,6.53
2023-02-28T18:19:04.617Z,6.78
2023-02-28T18:21:31.396Z,6.10
2023-02-28T18:23:58.204Z,6.72
2023-02-28T18:26:24.576Z,7.10
2023-02-28T18:28:50.931Z,7.05
2023-02-28T18:31:19.235Z,6.82
2023-02-28T18:33:48.827Z,6.90
2023-02-28T18:36:15.274Z,7.63
2023-02-28T18:38:43.615Z,8.32
2023-02-28T18:41:10.120Z,7.85
2023-02-28T18:43:38.494Z,7.90
2023-02-28T18:46:12.976Z,7.70
2023-02-28T18:48:39.598Z,8.27
2023-02-28T18:51:10.043Z,8.52
2023-02-28T18:53:37.081Z,8.02
2023-02-28T18:56:04.132Z,8.48
2023-02-28T18:58:30.844Z,8.52
2023-02-28T19:00:57.309Z,7.72
2023-02-28T19:03:23.900Z,8.20
2023-02-28T19:05:53.988Z,8.32
2023-02-28T19:08:20.407Z,8.35
2023-02-28T19:10:46.805Z,8.43
2023-02-28T19:13:13.226Z,8.63
2023-02-28T19:15:39.693Z,8.32
2023-02-28T19:18:06.163Z,8.25
2023-02-28T19:20:32.595Z,9.02
2023-02-28T19:23:00.502Z,8.95
2023-02-28T19:25:27.778Z,9.00
2023-02-28T19:27:54.640Z,8.45
2023-02-28T19:30:21.702Z,8.30
2023-02-28T19:32:48.911Z,8.70
2023-02-28T19:35:15.396Z,8.07
2023-02-28T19:37:42.230Z,8.82
2023-02-28T19:40:11.162Z,8.60
2023-02-28T19:42:37.856Z,8.10
2023-02-28T19:45:05.600Z,8.15
2023-02-28T19:47:32.099Z,8.10
2023-02-28T19:49:58.526Z,7.60
2023-02-28T19:52:25.221Z,8.30
2023-02-28T19:54:51.832Z,8.15
2023-02-28T19:57:18.455Z,8.32
2023-02-28T19:59:44.851Z,8.52
2023-02-28T20:02:21.495Z,8.45
2023-02-28T20:04:49.084Z,7.68
2023-02-28T20:07:16.932Z,8.40
2023-02-28T20:09:44.807Z,8.50
2023-02-28T20:12:23.184Z,8.63
2023-02-28T20:14:51.000Z,8.48
2023-02-28T20:17:17.494Z,8.35
2023-02-28T20:19:44.040Z,8.15
2023-02-28T20:22:10.540Z,7.93
2023-02-28T20:24:37.060Z,8.40
2023-02-28T20:27:03.962Z,8.05
2023-02-28T20:29:30.392Z,8.35
2023-02-28T20:31:57.757Z,8.93
2023-02-28T20:34:25.244Z,8.90
2023-02-28T20:36:51.723Z,7.88
2023-02-28T20:39:18.463Z,7.97
2023-02-28T20:41:44.960Z,8.45
2023-02-28T20:44:14.261Z,8.48
2023-02-28T20:46:41.769Z,9.25
2023-02-28T20:49:08.228Z,8.00
2023-02-28T20:51:34.718Z,8.18
2023-02-28T20:54:01.150Z,8.02
2023-02-28T20:56:27.891Z,8.55
2023-02-28T20:58:58.120Z,8.35
2023-02-28T21:01:26.600Z,8.55
2023-02-28T21:03:54.935Z,8.45
2023-02-28T21:06:22.160Z,8.10
2023-02-28T21:08:48.745Z,8.25
2023-02-28T21:11:16.385Z,8.10
2023-02-28T21:13:43.983Z,8.77
2023-02-28T21:16:11.911Z,7.68
2023-02-28T21:18:38.486Z,8.00
2023-02-28T21:21:05.910Z,7.55
2023-02-28T21:23:32.407Z,8.02
2023-02-28T21:26:05.905Z,8.18
2023-02-28T21:28:32.873Z,7.97
2023-02-28T21:31:07.101Z,7.55
2023-02-28T21:33:34.116Z,7.68
2023-02-28T21:36:04.697Z,7.85
2023-02-28T21:38:31.165Z,7.78
2023-02-28T21:41:03.116Z,7.97
2023-02-28T21:43:29.545Z,7.80
2023-02-28T21:45:55.974Z,7.43
2023-02-28T21:48:22.485Z,8.00
2023-02-28T21:50:55.832Z,7.40
2023-02-28T21:53:22.243Z,7.60
2023-02-28T21:55:48.744Z,7.40
2023-02-28T21:58:15.196Z,7.45
2023-02-28T22:00:41.613Z,7.65
2023-02-28T22:03:08.160Z,8.00
2023-02-28T22:05:34.632Z,8.48
2023-02-28T22:08:01.076Z,7.70
2023-02-28T22:10:27.499Z,8.13
2023-02-28T22:12:53.961Z,7.93
2023-02-28T22:15:20.376Z,8.07
2023-02-28T22:17:46.800Z,7.68
2023-02-28T22:20:13.235Z,8.32
2023-02-28T22:22:39.779Z,8.10
2023-02-28T22:25:06.623Z,7.78
2023-02-28T22:27:33.765Z,7.68
2023-02-28T22:30:00.167Z,7.90
2023-02-28T22:32:26.691Z,7.70
2023-02-28T22:34:53.322Z,8.55
2023-02-28T22:37:19.733Z,8.00
2023-02-28T22:39:46.162Z,8.50
2023-02-28T22:42:12.723Z,8.27
2023-02-28T22:44:39.245Z,8.85
2023-02-28T22:47:05.973Z,8.88
2023-02-28T22:49:32.489Z,8.40
2023-02-28T22:51:58.942Z,8.20
2023-02-28T22:54:25.362Z,8.40
2023-02-28T22:56:51.833Z,8.88
2023-02-28T22:59:18.466Z,8.95
2023-02-28T23:01:45.066Z,10.15
2023-02-28T23:04:12.692Z,9.60
2023-02-28T23:06:43.230Z,10.80
2023-02-28T23:09:15.103Z,9.88
2023-02-28T23:11:42.531Z,11.05
2023-02-28T23:14:09.727Z,11.38
2023-02-28T23:16:37.593Z,12.07
2023-02-28T23:19:05.732Z,12.50
2023-02-28T23:21:32.261Z,12.68
2023-02-28T23:23:58.689Z,13.18
2023-02-28T23:26:25.174Z,13.75
2023-02-28T23:28:51.640Z,14.75
2023-02-28T23:31:18.174Z,14.35
2023-02-28T23:33:44.808Z,14.88
2023-02-28T23:36:12.536Z,15.35
2023-02-28T23:38:39.887Z,15.77
2023-02-28T23:41:07.355Z,15.63
2023-02-28T23:43:33.865Z,15.40
2023-02-28T23:46:00.369Z,16.42
2023-02-28T23:48:27.596Z,16.15
2023-02-28T23:50:54.014Z,16.20
2023-02-28T23:53:20.463Z,16.92
2023-02-28T23:55:47.409Z,15.90
2023-02-28T23:58:13.985Z,16.50
